createdAt,value
2018-06-24T00:01:15.491Z,17.01
2018-06-24T00:06:10.323Z,16.99
2018-06-24T00:11:05.004Z,16.99
2018-06-24T00:15:59.630Z,16.74
2018-06-24T00:20:54.342Z,16.72
2018-06-24T00:25:49.038Z,16.74
2018-06-24T00:30:43.579Z,17.00
2018-06-24T00:35:38.234Z,16.87
2018-06-24T00:40:32.880Z,16.96
2018-06-24T00:45:27.620Z,16.61
2018-06-24T00:50:22.284Z,16.45
2018-06-24T00:55:17.008Z,16.53
2018-06-24T01:00:17.450Z,16.45
2018-06-24T01:05:13.021Z,16.43
2018-06-24T01:10:07.710Z,16.59
2018-06-24T01:15:02.755Z,16.53
2018-06-24T01:19:59.081Z,16.64
2018-06-24T01:24:54.611Z,16.30
2018-06-24T01:34:39.157Z,16.03
2018-06-24T01:39:33.810Z,15.96
2018-06-24T01:44:28.700Z,15.75
2018-06-24T01:49:23.310Z,15.64
2018-06-24T01:54:17.966Z,15.84
2018-06-24T01:59:12.631Z,15.75
2018-06-24T02:04:07.663Z,15.85
2018-06-24T02:09:02.319Z,15.54
2018-06-24T02:13:56.960Z,15.30
2018-06-24T02:23:51.382Z,15.28
2018-06-24T02:28:46.081Z,15.11
2018-06-24T02:33:40.720Z,15.07
2018-06-24T02:38:35.406Z,15.03
2018-06-24T02:43:30.049Z,14.86
2018-06-24T02:48:24.799Z,14.74
2018-06-24T02:53:19.208Z,14.89
2018-06-24T02:58:13.849Z,14.44
2018-06-24T03:03:08.530Z,14.50
2018-06-24T03:08:03.180Z,14.48
2018-06-24T03:12:57.807Z,14.56
2018-06-24T03:17:52.511Z,14.48
2018-06-24T03:22:47.159Z,14.44
2018-06-24T03:27:41.880Z,14.49
2018-06-24T03:32:36.500Z,14.45
2018-06-24T03:37:31.195Z,14.12
2018-06-24T03:42:25.808Z,14.21
2018-06-24T03:47:20.537Z,14.41
2018-06-24T03:52:15.221Z,14.36
2018-06-24T03:57:09.906Z,14.41
2018-06-24T04:02:04.574Z,14.52
2018-06-24T04:06:59.346Z,14.45
2018-06-24T04:11:53.990Z,14.56
2018-06-24T04:16:48.725Z,14.79
2018-06-24T04:21:44.511Z,14.71
2018-06-24T04:26:39.169Z,14.87
2018-06-24T04:31:33.934Z,15.01
2018-06-24T04:36:28.617Z,15.13
2018-06-24T04:41:23.289Z,15.18
2018-06-24T04:46:17.966Z,15.37
2018-06-24T04:51:12.594Z,16.21
2018-06-24T04:56:07.258Z,16.14
2018-06-24T05:01:01.919Z,16.21
2018-06-24T05:05:56.559Z,16.38
2018-06-24T05:10:51.174Z,16.63
2018-06-24T05:15:45.757Z,17.03
2018-06-24T05:20:40.420Z,17.07
2018-06-24T05:25:35.068Z,17.35
2018-06-24T05:30:29.705Z,17.03
2018-06-24T05:35:24.383Z,17.25
2018-06-24T05:40:18.963Z,18.29
2018-06-24T05:45:13.584Z,18.68
2018-06-24T05:50:08.307Z,18.73
2018-06-24T05:55:02.954Z,18.66
2018-06-24T05:59:57.628Z,18.66
2018-06-24T06:04:52.246Z,18.66
2018-06-24T06:09:46.891Z,18.43
2018-06-24T06:14:41.491Z,18.43
2018-06-24T06:19:36.160Z,18.58
2018-06-24T06:24:30.815Z,18.65
2018-06-24T06:29:25.383Z,18.98
2018-06-24T06:34:20.051Z,19.13
2018-06-24T06:39:14.690Z,19.21
2018-06-24T06:44:09.379Z,19.02
2018-06-24T06:49:04.103Z,19.16
2018-06-24T06:53:58.682Z,19.68
2018-06-24T06:58:53.316Z,19.70
2018-06-24T07:03:47.901Z,20.54
2018-06-24T07:08:42.536Z,20.92
2018-06-24T07:13:37.152Z,20.79
2018-06-24T07:18:31.489Z,21.10
2018-06-24T07:23:26.050Z,21.02
2018-06-24T07:28:20.724Z,20.85
2018-06-24T07:33:15.667Z,20.02
2018-06-24T07:38:10.254Z,20.26
2018-06-24T07:43:05.043Z,20.17
2018-06-24T07:47:59.682Z,20.50
2018-06-24T07:52:54.231Z,20.81
2018-06-24T07:57:49.060Z,21.61
2018-06-24T08:02:43.719Z,21.53
2018-06-24T08:07:38.558Z,21.14
2018-06-24T08:12:33.124Z,21.16
2018-06-24T08:17:27.747Z,21.94
2018-06-24T08:22:22.430Z,22.42
2018-06-24T08:27:17.078Z,22.09
2018-06-24T08:32:11.718Z,22.07
2018-06-24T08:37:06.405Z,22.26
2018-06-24T08:42:01.454Z,23.36
2018-06-24T08:46:56.243Z,23.38
2018-06-24T08:51:50.901Z,22.51
2018-06-24T08:56:45.480Z,22.81
2018-06-24T09:01:40.098Z,22.89
2018-06-24T09:06:34.704Z,23.29
2018-06-24T09:11:29.347Z,22.42
2018-06-24T09:16:23.949Z,23.02
2018-06-24T09:21:18.607Z,23.05
2018-06-24T09:26:13.222Z,22.64
2018-06-24T09:31:07.927Z,23.04
2018-06-24T09:36:02.242Z,22.71
2018-06-24T09:40:57.638Z,23.05
2018-06-24T09:45:52.330Z,23.30
2018-06-24T09:50:46.951Z,23.57
2018-06-24T09:55:41.906Z,23.94
2018-06-24T10:00:36.847Z,24.31
2018-06-24T10:05:31.431Z,24.16
2018-06-24T10:10:26.183Z,24.42
2018-06-24T10:15:20.850Z,24.85
2018-06-24T10:20:15.568Z,24.37
2018-06-24T10:25:10.176Z,23.36
2018-06-24T10:30:05.419Z,23.71
2018-06-24T10:35:00.100Z,24.35
2018-06-24T10:39:54.685Z,24.48
2018-06-24T10:44:48.998Z,24.20
2018-06-24T10:49:43.653Z,24.55
2018-06-24T10:54:39.068Z,24.32
2018-06-24T10:59:33.763Z,24.50
2018-06-24T11:04:28.417Z,24.50
2018-06-24T11:09:23.050Z,24.45
2018-06-24T11:14:17.799Z,24.14
2018-06-24T11:19:12.483Z,23.63
2018-06-24T11:24:06.941Z,23.26
2018-06-24T11:29:01.766Z,22.93
2018-06-24T11:33:56.420Z,22.72
2018-06-24T11:38:51.201Z,24.17
2018-06-24T11:43:45.966Z,25.42
2018-06-24T11:48:40.685Z,26.25
2018-06-24T11:53:35.411Z,26.99
2018-06-24T11:58:30.051Z,27.01
2018-06-24T12:03:24.742Z,24.88
2018-06-24T12:08:19.402Z,23.80
2018-06-24T12:13:14.139Z,25.68
2018-06-24T12:18:09.228Z,24.17
2018-06-24T12:23:03.524Z,23.82
2018-06-24T12:27:58.206Z,25.15
2018-06-24T12:32:52.939Z,24.84
2018-06-24T12:37:47.603Z,25.43
2018-06-24T12:42:42.235Z,25.01
2018-06-24T12:47:36.870Z,25.40
2018-06-24T12:52:31.541Z,25.26
2018-06-24T12:57:26.204Z,25.41
2018-06-24T13:02:20.892Z,25.35
2018-06-24T13:07:15.555Z,25.86
2018-06-24T13:12:10.290Z,26.06
2018-06-24T13:17:05.684Z,26.51
2018-06-24T13:22:01.265Z,26.21
2018-06-24T13:26:57.632Z,25.75
2018-06-24T13:31:52.349Z,25.00
2018-06-24T13:36:46.689Z,24.92
2018-06-24T13:41:41.420Z,25.68
2018-06-24T13:46:35.801Z,25.78
2018-06-24T13:51:30.516Z,26.74
2018-06-24T13:56:25.213Z,26.70
2018-06-24T14:01:19.910Z,26.51
2018-06-24T14:06:14.969Z,26.80
2018-06-24T14:11:09.663Z,26.75
2018-06-24T14:16:04.363Z,26.19
2018-06-24T14:20:58.993Z,25.69
2018-06-24T14:25:53.714Z,25.96
2018-06-24T14:30:48.467Z,25.54
2018-06-24T14:35:43.135Z,25.34
2018-06-24T14:40:37.876Z,25.18
2018-06-24T14:45:32.620Z,25.35
2018-06-24T14:50:27.262Z,25.31
2018-06-24T14:55:21.963Z,25.11
2018-06-24T15:00:16.711Z,25.21
2018-06-24T15:05:12.381Z,25.04
2018-06-24T15:10:07.197Z,25.41
2018-06-24T15:15:02.305Z,25.25
2018-06-24T15:19:57.072Z,25.53
2018-06-24T15:24:51.751Z,25.44
2018-06-24T15:29:46.467Z,24.75
2018-06-24T15:34:41.172Z,24.50
2018-06-24T15:39:35.947Z,24.32
2018-06-24T15:44:30.632Z,24.05
2018-06-24T15:49:25.512Z,23.84
2018-06-24T15:54:20.189Z,23.90
2018-06-24T15:59:14.847Z,23.60
2018-06-24T16:04:09.519Z,23.56
2018-06-24T16:09:06.415Z,23.53
2018-06-24T16:14:01.138Z,24.08
2018-06-24T16:18:55.798Z,24.02
2018-06-24T16:23:50.592Z,23.59
2018-06-24T16:28:45.287Z,23.35
2018-06-24T16:33:39.946Z,23.51
2018-06-24T16:38:34.711Z,23.28
2018-06-24T16:43:29.407Z,23.10
2018-06-24T16:48:24.104Z,22.73
2018-06-24T16:53:19.624Z,22.43
2018-06-24T16:58:14.397Z,22.24
2018-06-24T17:03:09.083Z,21.90
2018-06-24T17:08:03.774Z,21.96
2018-06-24T17:12:59.649Z,21.80
2018-06-24T17:17:54.316Z,21.83
2018-06-24T17:22:49.003Z,21.94
2018-06-24T17:27:43.694Z,21.63
2018-06-24T17:32:38.385Z,21.83
2018-06-24T17:37:33.124Z,21.78
2018-06-24T17:42:27.820Z,22.00
2018-06-24T17:47:22.487Z,21.93
2018-06-24T17:52:17.214Z,21.54
2018-06-24T17:57:11.949Z,21.47
2018-06-24T18:02:06.759Z,21.68
2018-06-24T18:07:01.427Z,21.87
2018-06-24T18:11:56.926Z,21.99
2018-06-24T18:16:51.609Z,21.81
2018-06-24T18:21:46.363Z,21.78
2018-06-24T18:26:41.107Z,21.87
2018-06-24T18:31:35.907Z,21.64
2018-06-24T18:36:30.632Z,21.91
2018-06-24T18:41:25.307Z,21.43
2018-06-24T18:46:20.095Z,21.11
2018-06-24T18:51:14.927Z,21.26
2018-06-24T18:56:09.581Z,21.05
2018-06-24T19:01:04.492Z,20.69
2018-06-24T19:05:58.857Z,20.64
2018-06-24T19:10:53.583Z,20.70
2018-06-24T19:15:48.283Z,20.39
2018-06-24T19:20:43.028Z,20.76
2018-06-24T19:25:37.719Z,20.53
2018-06-24T19:30:32.411Z,20.53
2018-06-24T19:35:27.082Z,20.21
2018-06-24T19:40:21.864Z,20.23
2018-06-24T19:45:16.652Z,20.22
2018-06-24T19:50:11.331Z,20.21
2018-06-24T19:55:06.167Z,20.09
2018-06-24T20:00:00.940Z,19.97
2018-06-24T20:04:55.321Z,19.93
2018-06-24T20:09:50.039Z,19.89
2018-06-24T20:14:44.818Z,19.91
2018-06-24T20:19:39.518Z,19.75
2018-06-24T20:24:34.336Z,19.80
2018-06-24T20:29:28.992Z,19.76
2018-06-24T20:34:23.642Z,19.73
2018-06-24T20:39:18.396Z,19.82
2018-06-24T20:44:13.039Z,19.82
2018-06-24T20:49:07.757Z,19.63
2018-06-24T20:54:02.522Z,19.71
2018-06-24T20:58:57.566Z,19.65
2018-06-24T21:03:51.989Z,19.42
2018-06-24T21:08:46.603Z,19.37
2018-06-24T21:13:41.271Z,19.38
2018-06-24T21:18:35.907Z,19.56
2018-06-24T21:23:30.656Z,19.52
2018-06-24T21:28:25.292Z,19.48
2018-06-24T21:33:20.011Z,19.46
2018-06-24T21:38:14.703Z,19.31
2018-06-24T21:43:09.326Z,19.18
2018-06-24T21:48:04.058Z,19.29
2018-06-24T21:52:58.717Z,19.49
2018-06-24T21:57:53.369Z,19.45
2018-06-24T22:02:48.083Z,19.48
2018-06-24T22:07:42.378Z,19.42
2018-06-24T22:12:37.083Z,19.21
2018-06-24T22:17:31.854Z,19.24
2018-06-24T22:22:26.520Z,19.00
2018-06-24T22:27:21.211Z,18.92
2018-06-24T22:32:15.927Z,18.99
2018-06-24T22:37:10.589Z,19.31
2018-06-24T22:42:05.587Z,19.13
2018-06-24T22:47:00.205Z,19.21
2018-06-24T22:51:54.878Z,18.97
2018-06-24T22:56:49.555Z,18.69
2018-06-24T23:01:44.530Z,18.63
2018-06-24T23:06:39.130Z,18.42
2018-06-24T23:11:33.759Z,18.55
2018-06-24T23:16:28.488Z,18.96
2018-06-24T23:21:23.142Z,19.08
2018-06-24T23:26:17.827Z,18.71
2018-06-24T23:31:12.451Z,18.59
2018-06-24T23:36:07.293Z,18.35
2018-06-24T23:41:01.977Z,18.45
2018-06-24T23:45:56.579Z,18.22
2018-06-24T23:50:51.643Z,18.11
2018-06-24T23:55:46.312Z,17.94
